createdAt,value
2023-03-18T00:00:02.580Z,1003.5
2023-03-18T00:15:03.208Z,1003.6
2023-03-18T00:30:02.433Z,1003.5
2023-03-18T00:45:03.074Z,1003.6
2023-03-18T01:00:02.375Z,1003.5
2023-03-18T01:15:02.834Z,1003.6
2023-03-18T01:30:02.271Z,1003.4
2023-03-18T01:45:02.721Z,1003.3
2023-03-18T02:00:03.192Z,1003.4
2023-03-18T02:15:02.584Z,1003.5
2023-03-18T02:30:03.093Z,1003.5
2023-03-18T02:45:02.452Z,1003.6
2023-03-18T03:00:03.111Z,1003.6
2023-03-18T03:15:02.347Z,1003.7
2023-03-18T03:30:02.815Z,1003.8
2023-03-18T03:45:02.231Z,1003.7
2023-03-18T04:00:02.687Z,1003.7
2023-03-18T04:15:03.147Z,1004.0
2023-03-18T04:30:02.554Z,1004.4
2023-03-18T04:45:03.149Z,1004.0
2023-03-18T05:00:02.425Z,1004.3
2023-03-18T05:15:03.102Z,1004.3
2023-03-18T05:45:02.771Z,1004.4
2023-03-18T06:00:03.209Z,1004.7
2023-03-18T06:15:02.621Z,1004.5
2023-03-18T06:30:03.154Z,1004.9
2023-03-18T06:45:02.514Z,1005.0
2023-03-18T07:00:03.165Z,1005.2
2023-03-18T07:15:02.411Z,1005.2
2023-03-18T07:30:02.837Z,1005.4
2023-03-18T07:45:02.256Z,1005.4
2023-03-18T08:00:02.682Z,1005.7
2023-03-18T08:15:03.165Z,1005.7
2023-03-18T08:30:03.969Z,1005.9
2023-03-18T09:00:02.463Z,1006.1
2023-03-18T09:15:02.914Z,1006.3
2023-03-18T09:30:02.328Z,1006.3
2023-03-18T09:45:02.755Z,1006.3
2023-03-18T10:00:03.236Z,1006.5
2023-03-18T10:15:02.640Z,1006.7
2023-03-18T10:30:03.202Z,1006.7
2023-03-18T10:45:02.550Z,1006.8
2023-03-18T11:00:03.223Z,1006.9
2023-03-18T11:15:02.411Z,1006.9
2023-03-18T11:30:02.868Z,1006.8
2023-03-18T11:45:02.296Z,1006.9
2023-03-18T12:00:02.739Z,1006.8
2023-03-18T12:15:03.214Z,1006.6
2023-03-18T12:30:02.632Z,1006.6
2023-03-18T12:45:03.238Z,1006.5
2023-03-18T13:00:02.486Z,1006.4
2023-03-18T13:15:02.941Z,1006.3
2023-03-18T13:30:02.344Z,1006.3
2023-03-18T13:45:02.834Z,1006.4
2023-03-18T14:00:02.231Z,1006.3
2023-03-18T14:15:02.657Z,1006.2
2023-03-18T14:30:03.221Z,1006.3
2023-03-18T14:45:02.562Z,1006.0
2023-03-18T15:00:03.186Z,1005.8
2023-03-18T15:15:02.423Z,1005.8
2023-03-18T15:30:02.887Z,1005.7
2023-03-18T15:45:02.337Z,1005.8
2023-03-18T16:00:02.790Z,1005.8
2023-03-18T16:15:03.261Z,1005.8
2023-03-18T16:30:02.714Z,1005.7
2023-03-18T16:45:03.255Z,1005.9
2023-03-18T17:00:02.510Z,1006.3
2023-03-18T17:15:02.975Z,1007.5
2023-03-18T17:30:02.423Z,1007.5
2023-03-18T17:45:02.835Z,1007.0
2023-03-18T18:00:02.285Z,1007.0
2023-03-18T18:15:02.700Z,1007.1
2023-03-18T18:30:03.452Z,1007.0
2023-03-18T18:45:02.605Z,1006.9
2023-03-18T19:00:03.248Z,1006.9
2023-03-18T19:15:02.472Z,1006.9
2023-03-18T19:30:02.897Z,1006.8
2023-03-18T19:45:02.317Z,1006.7
2023-03-18T20:00:02.752Z,1007.0
2023-03-18T20:15:02.304Z,1007.0
2023-03-18T20:30:02.651Z,1007.2
2023-03-18T20:45:03.322Z,1007.1
2023-03-18T21:00:02.523Z,1007.0
2023-03-18T21:15:02.984Z,1007.1
2023-03-18T21:30:02.394Z,1007.3
2023-03-18T22:00:03.336Z,1007.0
2023-03-18T22:15:02.705Z,1006.9
2023-03-18T22:30:03.342Z,1007.0
2023-03-18T22:45:02.566Z,1007.1
2023-03-18T23:00:03.040Z,1007.0
2023-03-18T23:15:02.460Z,1007.0
2023-03-18T23:30:02.890Z,1006.9
2023-03-18T23:45:02.388Z,1006.9
